Latest Coastal Weather Observations for Norah Head

IDN60701

Issued at 9:51 pm EST Sunday 30 August 2015 (issued every 10 minutes, with the page automatically refreshed every 10 minutes)

About coastal observations | Map of coastal stations | Coastal observations for NSW | Marine services | Other Formats
Station Details ID: 061366 Name: NORAH HEAD AWS Lat: -33.28 Lon: 151.58 Height: 18.8 m
Data from the previous 72 hours. | See also: Recent months at Norah Head
Date/Time
EST
Temp

°C
Wind Pressure Rain
since 9am
mm
Weather Cloud Vis
km
Sea
Height
m
Swell
Dir
 
Speed
knots
Gust
knots
hPa Trend Height
m
Period
s
Dir
30/09:30pm 13.9 W 5 10 1018.2 - 0.0 - - - - - - -
30/09:00pm 16.2 S 9 15 1018.1 - 0.0 - - - - - - -
30/08:30pm 15.9 S 11 18 1018.0 - 0.0 - - - - - - -
30/08:00pm 15.7 S 11 16 1018.0 - 0.0 - - - - - - -
30/07:30pm 15.6 S 12 18 1018.0 - 0.0 - - - - - - -
30/07:00pm 15.5 S 13 17 1017.8 - 0.0 - - - - - - -
30/06:30pm 15.5 S 13 17 1017.6 - 0.0 - - - - - - -
30/06:00pm 15.2 S 14 18 1017.5 - 0.0 - - - - - - -
30/05:30pm 15.3 S 13 18 1017.3 - 0.0 - - - - - - -
30/05:00pm 15.3 S 13 17 1017.1 - 0.0 - - - - - - -
30/04:30pm 15.3 S 14 19 1017.0 - 0.0 - - - - - - -
30/04:00pm 15.8 S 14 16 1017.0 - 0.0 - - - - - - -
30/03:30pm 15.8 S 14 17 1017.0 - 0.0 - - - - - - -
30/03:00pm 16.1 S 13 17 1017.3 - 0.0 - - - - - - -
30/02:30pm 16.4 S 13 16 1017.3 - 0.0 - - - - - - -
30/02:00pm 16.2 S 14 18 1017.5 - 0.0 - - - - - - -
30/01:30pm 16.4 S 13 16 1017.7 - 0.0 - - - - - - -
30/01:00pm 15.9 S 12 15 1018.0 - 0.0 - - - - - - -
30/12:30pm 15.9 S 12 16 1018.3 - 0.0 - - - - - - -
30/12:00pm 15.6 S 10 15 1018.8 - 0.0 - - - - - - -
30/11:30am 16.0 SSW 9 14 1019.2 - 0.0 - - - - - - -
30/11:00am 15.5 SSW 8 13 1019.6 - 0.0 - - - - - - -
30/10:30am 14.8 SSW 10 15 1019.8 - 0.0 - - - - - - -
30/10:00am 14.4 SW 8 13 1019.8 - 0.0 - - - - - - -
30/09:30am 13.9 SW 7 14 1019.8 - 0.0 - - - - - - -
30/09:00am 13.3 SW 7 13 1019.8 - 0.0 - - - - - - -
30/08:30am 12.5 WSW 8 13 1019.7 - 0.0 - - - - - - -
30/08:00am 11.7 WSW 8 14 1019.7 - 0.0 - - - - - - -
30/07:30am 10.4 W 7 11 1019.5 - 0.0 - - - - - - -
30/07:00am 9.6 W 8 12 1019.3 - 0.0 - - - - - - -
30/06:30am 8.9 W 7 11 1019.2 - 0.0 - - - - - - -
30/06:00am 8.7 W 8 12 1018.9 - 0.0 - - - - - - -
30/05:30am 8.8 W 8 12 1018.6 - 0.0 - - - - - - -
30/05:00am 8.9 W 6 9 1018.7 - 0.0 - - - - - - -
30/04:30am 9.4 W 6 9 1018.6 - 0.0 - - - - - - -
30/04:00am 9.5 W 6 10 1018.6 - 0.0 - - - - - - -
30/03:30am 9.7 W 6 9 1018.7 - 0.0 - - - - - - -
30/03:00am 9.8 WSW 6 8 1018.8 - 0.0 - - - - - - -
30/02:30am 10.1 W 6 9 1019.1 - 0.0 - - - - - - -
30/02:00am 10.3 WSW 6 9 1019.3 - 0.0 - - - - - - -
30/01:30am 10.6 WSW 6 10 1019.7 - 0.0 - - - - - - -
30/01:00am 10.9 WSW 6 9 1020.0 - 0.0 - - - - - - -
30/12:30am 11.1 WSW 6 7 1020.2 - 0.0 - - - - - - -
30/12:00am 11.3 WSW 6 8 1020.4 - 0.0 - - - - - - -
 
Date/Time
EST
Temp

°C
Wind Pressure Rain
since 9am
mm
Weather Cloud Vis
km
Sea
Height
m
Swell
Dir
 
Speed
knots
Gust
knots
hPa Trend Height
m
Period
s
Dir
29/11:30pm 11.5 W 5 7 1020.3 - 0.0 - - - - - - -
29/11:00pm 11.9 W 6 10 1020.2 - 0.0 - - - - - - -
29/10:30pm 11.9 W 5 8 1020.1 - 0.0 - - - - - - -
29/10:00pm 12.0 WNW 4 7 1020.1 - 0.0 - - - - - - -
29/09:30pm 12.2 WNW 6 9 1020.2 - 0.0 - - - - - - -
29/09:00pm 13.1 W 7 9 1020.0 - 0.0 - - - - - - -
29/08:30pm 13.4 WSW 6 8 1019.7 - 0.0 - - - - - - -
29/08:00pm 14.1 W 7 9 1019.5 - 0.0 - - - - - - -
29/07:30pm 15.6 S 1 2 1019.1 - 0.0 - - - - - - -
29/07:00pm 15.7 SE 3 4 1018.9 - 0.0 - - - - - - -
29/06:30pm 15.9 ESE 3 4 1018.6 - 0.0 - - - - - - -
29/06:00pm 15.6 ESE 4 5 1018.4 - 0.0 - - - - - - -
29/05:30pm 15.7 ENE 6 7 1018.1 - 0.0 - - - - - - -
29/05:00pm 15.8 ESE 7 8 1018.0 - 0.0 - - - - - - -
29/04:30pm 16.2 ESE 6 8 1017.8 - 0.0 - - - - - - -
29/04:00pm 16.5 SE 9 10 1017.8 - 0.0 - - - - - - -
29/03:30pm 16.9 SE 8 10 1017.9 - 0.0 - - - - - - -
29/03:00pm 17.5 SE 9 11 1018.1 - 0.0 - - - - - - -
29/02:30pm 18.1 SE 9 11 1018.3 - 0.0 - - - - - - -
29/02:00pm 18.2 ESE 6 8 1018.7 - 0.0 - - - - - - -
29/01:30pm 17.4 E 6 8 1019.0 - 0.0 - - - - - - -
29/01:00pm 17.6 ESE 6 7 1019.4 - 0.0 - - - - - - -
29/12:30pm 17.2 E 5 7 1019.8 - 0.0 - - - - - - -
29/12:00pm 17.4 E 5 7 1020.4 - 0.0 - - - - - - -
29/11:30am 17.5 ENE 5 7 1021.0 - 0.0 - - - - - - -
29/11:00am 18.7 NE 6 9 1021.6 - 0.0 - - - - - - -
29/10:30am 17.0 N 6 6 1021.9 - 0.0 - - - - - - -
29/10:00am 17.0 N 4 5 1022.2 - 0.0 - - - - - - -
29/09:30am 15.8 NNW 2 3 1022.5 - 0.0 - - - - - - -
29/09:00am 14.4 WNW 2 6 1022.8 - 0.0 - - - - - - -
29/08:30am 13.8 WNW 3 5 1022.9 - 0.0 - - - - - - -
29/08:00am 12.4 W 4 7 1022.9 - 0.0 - - - - - - -
29/07:30am 11.4 WNW 4 6 1022.8 - 0.0 - - - - - - -
29/07:00am 10.3 WNW 3 5 1022.7 - 0.0 - - - - - - -
29/06:30am 9.8 WNW 4 7 1022.6 - 0.0 - - - - - - -
29/06:00am 10.2 WNW 6 8 1022.3 - 0.0 - - - - - - -
29/05:30am 10.2 WNW 6 8 1022.1 - 0.0 - - - - - - -
29/05:00am 10.4 WNW 6 9 1021.9 - 0.0 - - - - - - -
29/04:30am 10.7 W 7 9 1021.6 - 0.0 - - - - - - -
29/04:00am 10.8 W 6 9 1021.6 - 0.0 - - - - - - -
29/03:30am 10.8 WNW 5 7 1021.7 - 0.0 - - - - - - -
29/03:00am 11.0 WNW 5 7 1021.8 - 0.0 - - - - - - -
29/02:30am 11.3 W 6 8 1022.0 - 0.0 - - - - - - -
29/02:00am 11.5 W 6 8 1022.2 - 0.0 - - - - - - -
29/01:30am 11.9 W 7 8 1022.4 - 0.0 - - - - - - -
29/01:00am 12.1 W 6 8 1022.5 - 0.0 - - - - - - -
29/12:30am 12.3 W 7 8 1022.6 - 0.0 - - - - - - -
29/12:00am 12.7 W 7 9 1022.5 - 0.0 - - - - - - -
 
Date/Time
EST
Temp

°C
Wind Pressure Rain
since 9am
mm
Weather Cloud Vis
km
Sea
Height
m
Swell
Dir
 
Speed
knots
Gust
knots
hPa Trend Height
m
Period
s
Dir
28/11:30pm 13.1 W 7 9 1022.7 - 0.0 - - - - - - -
28/11:00pm 13.1 W 7 10 1022.7 - 0.0 - - - - - - -
28/10:30pm 13.3 W 7 9 1022.6 - 0.0 - - - - - - -
28/10:00pm 13.4 W 7 9 1022.5 - 0.0 - - - - - - -
28/09:30pm 14.1 W 5 7 1022.6 - 0.0 - - - - - - -
28/09:00pm 14.4 W 5 6 1022.3 - 0.0 - - - - - - -
28/08:30pm 16.4 SSW 7 9 1022.1 - 0.0 - - - - - - -
28/08:00pm 16.4 S 8 11 1021.8 - 0.0 - - - - - - -
28/07:30pm 16.5 S 6 8 1021.5 - 0.0 - - - - - - -
28/07:00pm 16.6 S 8 11 1021.3 - 0.0 - - - - - - -
28/06:30pm 16.6 S 7 11 1021.0 - 0.0 - - - - - - -
28/06:00pm 16.6 S 8 11 1020.5 - 0.0 - - - - - - -
28/05:30pm 16.7 S 8 10 1020.4 - 0.0 - - - - - - -
28/05:00pm 16.8 S 5 7 1020.3 - 0.0 - - - - - - -
28/04:30pm 16.7 S 6 8 1019.9 - 0.0 - - - - - - -
28/04:00pm 16.9 S 10 12 1019.7 - 0.0 - - - - - - -
28/03:30pm 16.8 S 10 13 1019.4 - 0.0 - - - - - - -
28/03:00pm 17.5 S 7 9 1019.2 - 0.0 - - - - - - -
28/02:30pm 18.0 S 5 9 1019.1 - 0.0 - - - - - - -
28/02:00pm 18.4 SSW 6 10 1019.0 - 0.0 - - - - - - -
28/01:30pm 18.8 SSW 5 8 1019.0 - 0.0 - - - - - - -
28/01:00pm 18.3 SSW 8 14 1019.2 - 0.0 - - - - - - -
28/12:30pm 18.0 W 7 11 1019.6 - 0.0 - - - - - - -
28/12:00pm 18.7 W 7 12 1020.0 - 0.0 - - - - - - -
28/11:30am 18.3 WSW 7 12 1020.1 - 0.0 - - - - - - -
28/11:00am 17.9 WSW 6 14 1020.3 - 0.0 - - - - - - -
28/10:30am 16.9 WSW 7 13 1020.4 - 0.0 - - - - - - -
28/10:00am 16.3 W 7 13 1020.4 - 0.0 - - - - - - -
28/09:30am 15.5 W 6 11 1020.1 - 0.0 - - - - - - -
28/09:00am 14.9 WNW 6 13 1020.0 - 2.8 - - - - - - -
28/08:30am 14.4 WNW 4 9 1019.9 - 2.8 - - - - - - -
28/08:00am 13.6 WNW 4 9 1019.7 - 2.8 - - - - - - -
28/07:30am 12.7 NW 4 9 1019.3 - 2.8 - - - - - - -
28/07:00am 11.8 WNW 5 11 1018.9 - 2.8 - - - - - - -
28/06:30am 11.3 WNW 4 11 1018.6 - 2.8 - - - - - - -
28/06:00am 11.3 WNW 4 8 1018.3 - 2.8 - - - - - - -
28/05:30am 11.4 WNW 5 8 1017.8 - 2.8 - - - - - - -
28/05:00am 11.3 NW 5 9 1017.5 - 2.8 - - - - - - -
28/04:30am 11.2 WNW 4 9 1017.5 - 2.8 - - - - - - -
28/04:00am 11.3 WNW 4 9 1017.5 - 2.8 - - - - - - -
28/03:30am 11.3 NW 4 10 1017.3 - 2.8 - - - - - - -
28/03:00am 11.5 WNW 5 9 1017.4 - 2.8 - - - - - - -
28/02:30am 11.8 WNW 5 10 1017.6 - 2.8 - - - - - - -
28/02:00am 11.8 WNW 6 10 1017.8 - 2.8 - - - - - - -
28/01:30am 12.1 WNW 6 11 1018.2 - 2.8 - - - - - - -
28/01:00am 12.3 WNW 5 11 1018.5 - 2.8 - - - - - - -
28/12:30am 12.5 WNW 5 10 1018.6 - 2.8 - - - - - - -
28/12:00am 12.7 WNW 4 7 1018.4 - 2.8 - - - - - - -
 
Date/Time
EST
Temp

°C
Wind Pressure Rain
since 9am
mm
Weather Cloud Vis
km
Sea
Height
m
Swell
Dir
 
Speed
knots
Gust
knots
hPa Trend Height
m
Period
s
Dir
27/11:30pm 13.3 W 4 9 1018.3 - 2.8 - - - - - - -
27/11:00pm 13.6 NW 5 9 1018.1 - 2.8 - - - - - - -
27/10:30pm 13.6 WNW 4 8 1018.3 - 2.8 - - - - - - -
27/10:00pm 13.7 NW 4 8 1018.4 - 2.8 - - - - - - -

Other Formats:

Comma delimited format used in spreadsheet applications
http://www.bom.gov.au/fwo/IDN60701/IDN60701.95770.axf

JavaScript Object Notation format (JSON) in row-major order
http://www.bom.gov.au/fwo/IDN60701/IDN60701.95770.json